Language selection

Features

My Weather Profile Weather Topics  | 

Douglas Channel: Past 24 Hour Conditions

 

Masset Municipal Airport

02:00 AM PST 09 December 2019
Disclaimer

This table is a summary of hourly weather conditions for the past 24 hours.
Please note that these observations might not always be representative of weather conditions over their associated marine area.

Date / Time
(PST)
Wind(knots) Conditions Visibility(km) Pressure(kPa) Air tempC) Relative humidity(%) Dew pointC) Wind Chill
09 December 2019
2:00 S 3 N/A N/A 102.0 -3 100 -3 -5
1:00 S 3 N/A N/A 102.1 -3 100 -3 -5
0:00 S 2 N/A N/A 102.1 -3 100 -3 -5
08 December 2019
23:00 ESE 1 N/A N/A 102.2 -3 100 -3 -4
22:00 SE 1 N/A N/A 102.1 -2 100 -2 -3
21:00 SE 2 N/A N/A 102.1 -3 100 -3 -4
20:00 SSE 2 N/A N/A 102.1 -2 100 -2 -4
19:00 SSW 1 N/A N/A 102.2 -1 100 -1 -2
18:00 SSE 3 Mainly Clear 24 102.1 -1 100 -1 -3
17:00 SSE 2 Mainly Clear 24 102.2 -1 100 -1 -2
16:00 N 2 Mostly Cloudy 24 102.2 1 100 1 *
15:00 N 1 Partly Cloudy 24 102.2 4 98 3 *
14:00 SSE 3 Mostly Cloudy 24 102.2 4 97 4 *
13:00 calm Mostly Cloudy 24 102.1 2 100 2 *
12:00 SSE 4 Cloudy 24 102.1 2 100 2 *
11:00 SSE 2 Mostly Cloudy 24 102.2 0 100 0 *
10:00 SSE 2 Mostly Cloudy 24 102.1 -1 100 -1 -2
9:00 N 1 Mostly Cloudy 24 102.1 -1 100 -1 -2
8:00 N 1 Partly Cloudy 24 102.0 -2 100 -2 -3
7:00 SSE 4 Partly Cloudy 24 102.0 -1 100 -1 -4
6:00 SSW 2 N/A N/A 102.0 -3 100 -3 -4
5:00 S 2 N/A N/A 101.9 -2 100 -2 -3
4:00 SSE 2 N/A N/A 102.0 0 100 0 -2
3:00 S 3 N/A N/A 101.9 -1 100 -1 -3
2:00 SSE 3 N/A N/A 101.9 -1 100 -1 -2

Zoom-in to make a selection

Map of Pacific - North Coast marine weather areas Middle Nomad - 46004 South Nomad - 46036 Dixon Entrance Central - 46145 South Moresby - 46147 Nanakwa Shoal - 46181 North Hecate Strait - 46183 North Nomad - 46184 South Hecate Strait - 46185 West Sea Otter - 46204 West Dixon Entrance - 46205 East Dellwood - 46207 West Moresby - 46208 Sartine Island Cape St.James Kindakun Rocks Langara Island Masset Municipal Airport Rose Spit Sandspit Airport Bella Bella Airport Bella Coola Airport Bonilla Island Cathedral Point Cumshewa Island Grey Islet Holland Rock Lucy Islands Lightstation Prince Rupert Airport
Legend:
buoy Buoy
land station Land Station

Pacific - North Coast Area

Another Region

What we are doing

Date modified: